sensor_id;sensor_type;location;lat;lon;timestamp;P1;durP1;ratioP1;P2;durP2;ratioP2
8652;SDS011;4364;52.426;9.424;2022-08-03T00:01:48;6.93;;;5.47;;
8652;SDS011;4364;52.426;9.424;2022-08-03T00:04:15;6.43;;;5.77;;
8652;SDS011;4364;52.426;9.424;2022-08-03T00:06:41;6.63;;;5.83;;
8652;SDS011;4364;52.426;9.424;2022-08-03T00:09:08;7.20;;;6.10;;
8652;SDS011;4364;52.426;9.424;2022-08-03T00:11:35;6.73;;;5.87;;
8652;SDS011;4364;52.426;9.424;2022-08-03T00:14:02;6.47;;;5.87;;
8652;SDS011;4364;52.426;9.424;2022-08-03T00:16:36;6.10;;;5.57;;
8652;SDS011;4364;52.426;9.424;2022-08-03T00:19:03;6.37;;;5.53;;
8652;SDS011;4364;52.426;9.424;2022-08-03T00:21:30;6.80;;;6.20;;
8652;SDS011;4364;52.426;9.424;2022-08-03T00:23:57;7.10;;;6.13;;
8652;SDS011;4364;52.426;9.424;2022-08-03T00:26:23;7.10;;;6.50;;
8652;SDS011;4364;52.426;9.424;2022-08-03T00:28:50;6.77;;;6.00;;
8652;SDS011;4364;52.426;9.424;2022-08-03T00:31:16;6.53;;;5.90;;
8652;SDS011;4364;52.426;9.424;2022-08-03T00:34:03;7.27;;;6.50;;
8652;SDS011;4364;52.426;9.424;2022-08-03T00:36:32;6.77;;;6.17;;
8652;SDS011;4364;52.426;9.424;2022-08-03T00:38:59;6.40;;;5.80;;
8652;SDS011;4364;52.426;9.424;2022-08-03T00:41:26;6.97;;;6.37;;
8652;SDS011;4364;52.426;9.424;2022-08-03T00:43:53;6.13;;;5.63;;
8652;SDS011;4364;52.426;9.424;2022-08-03T00:46:19;6.80;;;6.10;;
8652;SDS011;4364;52.426;9.424;2022-08-03T00:48:48;6.33;;;5.60;;
8652;SDS011;4364;52.426;9.424;2022-08-03T00:51:15;6.40;;;5.90;;
8652;SDS011;4364;52.426;9.424;2022-08-03T00:53:42;7.33;;;6.67;;
8652;SDS011;4364;52.426;9.424;2022-08-03T00:56:11;6.50;;;5.90;;
8652;SDS011;4364;52.426;9.424;2022-08-03T00:58:38;6.40;;;5.90;;
8652;SDS011;4364;52.426;9.424;2022-08-03T01:01:05;7.00;;;6.40;;
8652;SDS011;4364;52.426;9.424;2022-08-03T01:03:32;7.63;;;6.70;;
8652;SDS011;4364;52.426;9.424;2022-08-03T01:06:24;7.07;;;6.40;;
8652;SDS011;4364;52.426;9.424;2022-08-03T01:09:08;6.40;;;5.83;;
8652;SDS011;4364;52.426;9.424;2022-08-03T01:14:54;6.70;;;6.00;;
8652;SDS011;4364;52.426;9.424;2022-08-03T01:17:31;6.97;;;6.27;;
8652;SDS011;4364;52.426;9.424;2022-08-03T01:20:09;7.03;;;6.27;;
8652;SDS011;4364;52.426;9.424;2022-08-03T01:26:08;6.77;;;6.17;;
8652;SDS011;4364;52.426;9.424;2022-08-03T01:28:49;6.50;;;5.90;;
8652;SDS011;4364;52.426;9.424;2022-08-03T01:31:28;6.57;;;5.97;;
8652;SDS011;4364;52.426;9.424;2022-08-03T01:34:28;6.37;;;5.87;;
8652;SDS011;4364;52.426;9.424;2022-08-03T01:36:59;6.27;;;5.67;;
8652;SDS011;4364;52.426;9.424;2022-08-03T01:39:30;6.50;;;5.90;;
8652;SDS011;4364;52.426;9.424;2022-08-03T01:41:58;7.20;;;6.60;;
8652;SDS011;4364;52.426;9.424;2022-08-03T01:44:36;7.00;;;6.40;;
8652;SDS011;4364;52.426;9.424;2022-08-03T01:47:05;8.40;;;6.37;;
8652;SDS011;4364;52.426;9.424;2022-08-03T01:49:38;7.70;;;6.50;;
8652;SDS011;4364;52.426;9.424;2022-08-03T01:52:08;6.80;;;6.20;;
8652;SDS011;4364;52.426;9.424;2022-08-03T01:54:39;6.23;;;5.73;;
8652;SDS011;4364;52.426;9.424;2022-08-03T01:57:11;6.77;;;6.17;;
8652;SDS011;4364;52.426;9.424;2022-08-03T01:59:39;6.57;;;5.97;;
8652;SDS011;4364;52.426;9.424;2022-08-03T02:02:08;6.47;;;5.87;;
8652;SDS011;4364;52.426;9.424;2022-08-03T02:04:58;6.70;;;6.13;;
8652;SDS011;4364;52.426;9.424;2022-08-03T02:07:27;6.37;;;5.77;;
8652;SDS011;4364;52.426;9.424;2022-08-03T02:09:55;6.57;;;5.87;;
8652;SDS011;4364;52.426;9.424;2022-08-03T02:12:26;6.33;;;5.73;;
8652;SDS011;4364;52.426;9.424;2022-08-03T02:14:56;6.77;;;6.07;;
8652;SDS011;4364;52.426;9.424;2022-08-03T02:17:27;6.50;;;5.90;;
8652;SDS011;4364;52.426;9.424;2022-08-03T02:20:05;6.50;;;5.90;;
8652;SDS011;4364;52.426;9.424;2022-08-03T02:22:33;6.53;;;5.93;;
8652;SDS011;4364;52.426;9.424;2022-08-03T02:25:01;6.33;;;5.73;;
8652;SDS011;4364;52.426;9.424;2022-08-03T02:27:27;8.03;;;6.27;;
8652;SDS011;4364;52.426;9.424;2022-08-03T02:29:58;6.23;;;5.67;;
8652;SDS011;4364;52.426;9.424;2022-08-03T02:32:30;6.13;;;5.53;;
8652;SDS011;4364;52.426;9.424;2022-08-03T02:35:06;6.00;;;5.50;;
8652;SDS011;4364;52.426;9.424;2022-08-03T02:37:42;8.47;;;5.83;;
8652;SDS011;4364;52.426;9.424;2022-08-03T02:40:15;6.80;;;5.57;;
8652;SDS011;4364;52.426;9.424;2022-08-03T02:42:44;6.50;;;5.90;;
8652;SDS011;4364;52.426;9.424;2022-08-03T02:45:12;7.33;;;6.00;;
8652;SDS011;4364;52.426;9.424;2022-08-03T02:47:41;6.37;;;5.77;;
8652;SDS011;4364;52.426;9.424;2022-08-03T02:50:18;5.70;;;5.20;;
8652;SDS011;4364;52.426;9.424;2022-08-03T02:52:48;5.90;;;5.40;;
8652;SDS011;4364;52.426;9.424;2022-08-03T02:55:18;6.00;;;5.40;;
8652;SDS011;4364;52.426;9.424;2022-08-03T02:57:46;6.07;;;5.57;;
8652;SDS011;4364;52.426;9.424;2022-08-03T03:00:13;6.03;;;5.43;;
8652;SDS011;4364;52.426;9.424;2022-08-03T03:02:54;6.27;;;5.67;;
8652;SDS011;4364;52.426;9.424;2022-08-03T03:05:22;6.20;;;5.53;;
8652;SDS011;4364;52.426;9.424;2022-08-03T03:08:13;6.30;;;5.70;;
8652;SDS011;4364;52.426;9.424;2022-08-03T03:10:44;6.83;;;5.90;;
8652;SDS011;4364;52.426;9.424;2022-08-03T03:13:12;6.97;;;5.50;;
8652;SDS011;4364;52.426;9.424;2022-08-03T03:15:40;6.70;;;6.00;;
8652;SDS011;4364;52.426;9.424;2022-08-03T03:18:09;6.53;;;5.63;;
8652;SDS011;4364;52.426;9.424;2022-08-03T03:20:37;7.80;;;5.90;;
8652;SDS011;4364;52.426;9.424;2022-08-03T03:23:06;7.83;;;6.20;;
8652;SDS011;4364;52.426;9.424;2022-08-03T03:25:34;6.43;;;5.83;;
8652;SDS011;4364;52.426;9.424;2022-08-03T03:28:02;6.37;;;5.77;;
8652;SDS011;4364;52.426;9.424;2022-08-03T03:30:32;7.97;;;6.30;;
8652;SDS011;4364;52.426;9.424;2022-08-03T03:32:59;7.60;;;6.47;;
8652;SDS011;4364;52.426;9.424;2022-08-03T03:35:28;8.97;;;6.47;;
8652;SDS011;4364;52.426;9.424;2022-08-03T03:38:05;7.20;;;6.23;;
8652;SDS011;4364;52.426;9.424;2022-08-03T03:40:35;8.37;;;6.40;;
8652;SDS011;4364;52.426;9.424;2022-08-03T03:43:06;6.30;;;5.80;;
8652;SDS011;4364;52.426;9.424;2022-08-03T03:45:34;5.73;;;5.13;;
8652;SDS011;4364;52.426;9.424;2022-08-03T03:48:02;7.53;;;6.73;;
8652;SDS011;4364;52.426;9.424;2022-08-03T03:50:31;7.43;;;6.20;;
8652;SDS011;4364;52.426;9.424;2022-08-03T03:53:00;6.53;;;5.93;;
8652;SDS011;4364;52.426;9.424;2022-08-03T03:55:28;6.60;;;5.90;;
8652;SDS011;4364;52.426;9.424;2022-08-03T03:57:56;9.73;;;6.90;;
8652;SDS011;4364;52.426;9.424;2022-08-03T04:00:22;6.90;;;6.10;;
8652;SDS011;4364;52.426;9.424;2022-08-03T04:02:49;6.70;;;5.97;;
8652;SDS011;4364;52.426;9.424;2022-08-03T04:05:16;5.87;;;5.33;;
8652;SDS011;4364;52.426;9.424;2022-08-03T04:10:50;6.50;;;5.40;;
8652;SDS011;4364;52.426;9.424;2022-08-03T04:13:30;5.97;;;5.43;;
8652;SDS011;4364;52.426;9.424;2022-08-03T04:15:59;6.17;;;5.57;;
8652;SDS011;4364;52.426;9.424;2022-08-03T04:18:28;6.00;;;5.50;;
8652;SDS011;4364;52.426;9.424;2022-08-03T04:20:59;6.33;;;5.40;;
8652;SDS011;4364;52.426;9.424;2022-08-03T04:23:30;7.17;;;5.93;;
8652;SDS011;4364;52.426;9.424;2022-08-03T04:26:00;7.80;;;5.87;;
8652;SDS011;4364;52.426;9.424;2022-08-03T04:28:29;7.13;;;6.03;;
8652;SDS011;4364;52.426;9.424;2022-08-03T04:31:01;5.90;;;5.30;;
8652;SDS011;4364;52.426;9.424;2022-08-03T04:33:30;6.20;;;5.67;;
8652;SDS011;4364;52.426;9.424;2022-08-03T04:36:00;6.03;;;5.43;;
8652;SDS011;4364;52.426;9.424;2022-08-03T04:38:31;8.87;;;6.73;;
8652;SDS011;4364;52.426;9.424;2022-08-03T04:41:02;7.00;;;6.17;;
8652;SDS011;4364;52.426;9.424;2022-08-03T04:43:29;7.03;;;6.43;;
8652;SDS011;4364;52.426;9.424;2022-08-03T04:45:59;8.40;;;5.80;;
8652;SDS011;4364;52.426;9.424;2022-08-03T04:48:26;5.80;;;5.20;;
8652;SDS011;4364;52.426;9.424;2022-08-03T04:50:53;5.70;;;5.20;;
8652;SDS011;4364;52.426;9.424;2022-08-03T04:53:20;7.50;;;6.20;;
8652;SDS011;4364;52.426;9.424;2022-08-03T04:55:48;5.80;;;5.30;;
8652;SDS011;4364;52.426;9.424;2022-08-03T04:58:15;6.57;;;5.80;;
8652;SDS011;4364;52.426;9.424;2022-08-03T05:00:41;5.87;;;5.33;;
8652;SDS011;4364;52.426;9.424;2022-08-03T05:03:08;6.40;;;5.53;;
8652;SDS011;4364;52.426;9.424;2022-08-03T05:05:50;5.70;;;5.20;;
8652;SDS011;4364;52.426;9.424;2022-08-03T05:08:27;6.63;;;5.50;;
8652;SDS011;4364;52.426;9.424;2022-08-03T05:10:54;5.40;;;4.90;;
8652;SDS011;4364;52.426;9.424;2022-08-03T05:13:25;6.10;;;5.50;;
8652;SDS011;4364;52.426;9.424;2022-08-03T05:15:51;6.40;;;5.80;;
8652;SDS011;4364;52.426;9.424;2022-08-03T05:18:18;6.73;;;5.83;;
8652;SDS011;4364;52.426;9.424;2022-08-03T05:20:44;6.33;;;5.73;;
8652;SDS011;4364;52.426;9.424;2022-08-03T05:23:11;7.17;;;5.57;;
8652;SDS011;4364;52.426;9.424;2022-08-03T05:25:37;5.93;;;5.33;;
8652;SDS011;4364;52.426;9.424;2022-08-03T05:28:04;6.43;;;5.80;;
8652;SDS011;4364;52.426;9.424;2022-08-03T05:30:31;7.77;;;6.10;;
8652;SDS011;4364;52.426;9.424;2022-08-03T05:33:00;5.70;;;5.20;;
8652;SDS011;4364;52.426;9.424;2022-08-03T05:35:27;6.23;;;5.60;;
8652;SDS011;4364;52.426;9.424;2022-08-03T05:38:14;6.20;;;5.50;;
8652;SDS011;4364;52.426;9.424;2022-08-03T05:40:53;7.53;;;5.43;;
8652;SDS011;4364;52.426;9.424;2022-08-03T05:43:40;6.07;;;5.20;;
8652;SDS011;4364;52.426;9.424;2022-08-03T05:46:06;6.17;;;5.50;;
8652;SDS011;4364;52.426;9.424;2022-08-03T05:48:38;6.83;;;5.37;;
8652;SDS011;4364;52.426;9.424;2022-08-03T05:51:05;6.50;;;5.07;;
8652;SDS011;4364;52.426;9.424;2022-08-03T05:53:33;6.43;;;5.30;;
8652;SDS011;4364;52.426;9.424;2022-08-03T05:56:00;5.77;;;5.03;;
8652;SDS011;4364;52.426;9.424;2022-08-03T05:58:40;7.27;;;4.80;;
8652;SDS011;4364;52.426;9.424;2022-08-03T06:01:07;6.57;;;5.17;;
8652;SDS011;4364;52.426;9.424;2022-08-03T06:03:34;5.10;;;4.60;;
8652;SDS011;4364;52.426;9.424;2022-08-03T06:06:00;5.90;;;5.07;;
8652;SDS011;4364;52.426;9.424;2022-08-03T06:08:29;5.33;;;4.13;;
8652;SDS011;4364;52.426;9.424;2022-08-03T06:10:56;6.50;;;4.70;;
8652;SDS011;4364;52.426;9.424;2022-08-03T06:13:23;7.57;;;4.50;;
8652;SDS011;4364;52.426;9.424;2022-08-03T06:15:50;4.63;;;4.23;;
8652;SDS011;4364;52.426;9.424;2022-08-03T06:18:16;6.17;;;4.10;;
8652;SDS011;4364;52.426;9.424;2022-08-03T06:20:43;6.83;;;4.37;;
8652;SDS011;4364;52.426;9.424;2022-08-03T06:23:09;4.03;;;3.60;;
8652;SDS011;4364;52.426;9.424;2022-08-03T06:25:41;4.80;;;3.93;;
8652;SDS011;4364;52.426;9.424;2022-08-03T06:28:08;4.43;;;3.90;;
8652;SDS011;4364;52.426;9.424;2022-08-03T06:30:54;5.07;;;3.93;;
8652;SDS011;4364;52.426;9.424;2022-08-03T06:33:20;5.83;;;4.10;;
8652;SDS011;4364;52.426;9.424;2022-08-03T06:35:47;4.13;;;3.70;;
8652;SDS011;4364;52.426;9.424;2022-08-03T06:38:13;4.50;;;3.50;;
8652;SDS011;4364;52.426;9.424;2022-08-03T06:40:40;5.57;;;3.50;;
8652;SDS011;4364;52.426;9.424;2022-08-03T06:43:06;6.30;;;4.50;;
8652;SDS011;4364;52.426;9.424;2022-08-03T06:45:38;4.70;;;3.43;;
8652;SDS011;4364;52.426;9.424;2022-08-03T06:48:08;4.57;;;3.87;;
8652;SDS011;4364;52.426;9.424;2022-08-03T06:50:37;5.07;;;3.80;;
8652;SDS011;4364;52.426;9.424;2022-08-03T06:53:04;4.93;;;3.40;;
8652;SDS011;4364;52.426;9.424;2022-08-03T06:55:31;6.10;;;3.70;;
8652;SDS011;4364;52.426;9.424;2022-08-03T06:57:58;7.73;;;3.50;;
8652;SDS011;4364;52.426;9.424;2022-08-03T07:00:28;3.20;;;2.90;;
8652;SDS011;4364;52.426;9.424;2022-08-03T07:02:56;3.40;;;3.10;;
8652;SDS011;4364;52.426;9.424;2022-08-03T07:05:23;3.90;;;3.50;;
8652;SDS011;4364;52.426;9.424;2022-08-03T07:07:53;7.10;;;3.50;;
8652;SDS011;4364;52.426;9.424;2022-08-03T07:10:20;3.87;;;3.50;;
8652;SDS011;4364;52.426;9.424;2022-08-03T07:12:47;6.53;;;3.20;;
8652;SDS011;4364;52.426;9.424;2022-08-03T07:15:21;5.33;;;3.23;;
8652;SDS011;4364;52.426;9.424;2022-08-03T07:18:08;3.43;;;3.07;;
8652;SDS011;4364;52.426;9.424;2022-08-03T07:20:34;5.10;;;3.30;;
8652;SDS011;4364;52.426;9.424;2022-08-03T07:23:01;4.47;;;3.47;;
8652;SDS011;4364;52.426;9.424;2022-08-03T07:25:28;4.97;;;3.00;;
8652;SDS011;4364;52.426;9.424;2022-08-03T07:27:54;5.10;;;3.50;;
8652;SDS011;4364;52.426;9.424;2022-08-03T07:30:21;3.57;;;3.13;;
8652;SDS011;4364;52.426;9.424;2022-08-03T07:32:55;4.07;;;3.33;;
8652;SDS011;4364;52.426;9.424;2022-08-03T07:35:22;4.90;;;3.13;;
8652;SDS011;4364;52.426;9.424;2022-08-03T07:37:51;3.75;;;3.10;;
8652;SDS011;4364;52.426;9.424;2022-08-03T07:40:20;7.68;;;3.20;;
8652;SDS011;4364;52.426;9.424;2022-08-03T07:42:47;4.30;;;3.22;;
8652;SDS011;4364;52.426;9.424;2022-08-03T07:45:18;7.00;;;3.05;;
8652;SDS011;4364;52.426;9.424;2022-08-03T07:47:46;6.05;;;3.00;;
8652;SDS011;4364;52.426;9.424;2022-08-03T07:50:19;4.47;;;2.88;;
8652;SDS011;4364;52.426;9.424;2022-08-03T07:52:45;3.38;;;2.88;;
8652;SDS011;4364;52.426;9.424;2022-08-03T07:55:17;3.67;;;2.88;;
8652;SDS011;4364;52.426;9.424;2022-08-03T07:57:45;3.75;;;2.85;;
8652;SDS011;4364;52.426;9.424;2022-08-03T08:00:14;3.50;;;3.20;;
8652;SDS011;4364;52.426;9.424;2022-08-03T08:02:42;4.47;;;3.17;;
8652;SDS011;4364;52.426;9.424;2022-08-03T08:05:09;3.92;;;2.70;;
8652;SDS011;4364;52.426;9.424;2022-08-03T08:07:37;5.28;;;3.10;;
8652;SDS011;4364;52.426;9.424;2022-08-03T08:10:05;5.40;;;3.00;;
8652;SDS011;4364;52.426;9.424;2022-08-03T08:12:35;3.83;;;2.90;;
8652;SDS011;4364;52.426;9.424;2022-08-03T08:15:03;3.03;;;2.70;;
8652;SDS011;4364;52.426;9.424;2022-08-03T08:17:29;3.50;;;2.60;;
8652;SDS011;4364;52.426;9.424;2022-08-03T08:19:56;4.25;;;2.72;;
8652;SDS011;4364;52.426;9.424;2022-08-03T08:22:24;4.20;;;2.78;;
8652;SDS011;4364;52.426;9.424;2022-08-03T08:24:57;4.00;;;2.47;;
8652;SDS011;4364;52.426;9.424;2022-08-03T08:27:31;4.63;;;2.45;;
8652;SDS011;4364;52.426;9.424;2022-08-03T08:30:21;5.30;;;2.47;;
8652;SDS011;4364;52.426;9.424;2022-08-03T08:32:50;4.57;;;2.75;;
8652;SDS011;4364;52.426;9.424;2022-08-03T08:35:16;4.82;;;2.58;;
8652;SDS011;4364;52.426;9.424;2022-08-03T08:37:43;3.53;;;2.60;;
8652;SDS011;4364;52.426;9.424;2022-08-03T08:40:16;3.42;;;2.15;;
8652;SDS011;4364;52.426;9.424;2022-08-03T08:42:46;7.63;;;2.50;;
8652;SDS011;4364;52.426;9.424;2022-08-03T08:45:23;5.80;;;2.67;;
8652;SDS011;4364;52.426;9.424;2022-08-03T08:47:50;5.00;;;2.30;;
8652;SDS011;4364;52.426;9.424;2022-08-03T08:50:22;6.57;;;2.42;;
8652;SDS011;4364;52.426;9.424;2022-08-03T08:52:53;7.88;;;2.50;;
8652;SDS011;4364;52.426;9.424;2022-08-03T08:55:21;3.75;;;2.25;;
8652;SDS011;4364;52.426;9.424;2022-08-03T08:57:51;4.00;;;2.20;;
8652;SDS011;4364;52.426;9.424;2022-08-03T09:00:28;6.05;;;2.10;;
8652;SDS011;4364;52.426;9.424;2022-08-03T09:02:56;3.90;;;2.40;;
8652;SDS011;4364;52.426;9.424;2022-08-03T09:05:22;6.55;;;2.30;;
8652;SDS011;4364;52.426;9.424;2022-08-03T09:08:10;5.05;;;2.13;;
8652;SDS011;4364;52.426;9.424;2022-08-03T09:10:36;4.70;;;2.40;;
8652;SDS011;4364;52.426;9.424;2022-08-03T09:13:02;5.22;;;2.30;;
8652;SDS011;4364;52.426;9.424;2022-08-03T09:15:30;7.13;;;2.35;;
8652;SDS011;4364;52.426;9.424;2022-08-03T09:17:59;3.47;;;2.13;;
8652;SDS011;4364;52.426;9.424;2022-08-03T09:20:29;3.42;;;2.35;;
8652;SDS011;4364;52.426;9.424;2022-08-03T09:22:58;4.70;;;2.40;;
8652;SDS011;4364;52.426;9.424;2022-08-03T09:25:50;8.38;;;2.67;;
8652;SDS011;4364;52.426;9.424;2022-08-03T09:28:26;5.25;;;2.33;;
8652;SDS011;4364;52.426;9.424;2022-08-03T09:31:32;4.32;;;2.45;;
8652;SDS011;4364;52.426;9.424;2022-08-03T09:34:04;4.82;;;2.00;;
8652;SDS011;4364;52.426;9.424;2022-08-03T09:36:46;4.55;;;2.50;;
8652;SDS011;4364;52.426;9.424;2022-08-03T09:39:21;6.32;;;2.22;;
8652;SDS011;4364;52.426;9.424;2022-08-03T09:42:08;5.97;;;2.20;;
8652;SDS011;4364;52.426;9.424;2022-08-03T09:44:41;2.92;;;2.05;;
8652;SDS011;4364;52.426;9.424;2022-08-03T09:47:09;4.03;;;2.33;;
8652;SDS011;4364;52.426;9.424;2022-08-03T09:49:37;4.13;;;2.60;;
8652;SDS011;4364;52.426;9.424;2022-08-03T09:52:13;3.25;;;2.15;;
8652;SDS011;4364;52.426;9.424;2022-08-03T09:54:58;4.35;;;2.30;;
8652;SDS011;4364;52.426;9.424;2022-08-03T09:57:29;4.20;;;2.30;;
8652;SDS011;4364;52.426;9.424;2022-08-03T10:00:11;6.47;;;2.50;;
8652;SDS011;4364;52.426;9.424;2022-08-03T10:02:40;3.60;;;2.15;;
8652;SDS011;4364;52.426;9.424;2022-08-03T10:05:09;5.15;;;2.47;;
8652;SDS011;4364;52.426;9.424;2022-08-03T10:07:46;5.25;;;2.15;;
8652;SDS011;4364;52.426;9.424;2022-08-03T10:10:14;4.85;;;2.42;;
8652;SDS011;4364;52.426;9.424;2022-08-03T10:13:01;4.28;;;2.33;;
8652;SDS011;4364;52.426;9.424;2022-08-03T10:15:28;3.45;;;2.17;;
8652;SDS011;4364;52.426;9.424;2022-08-03T10:18:16;3.92;;;2.00;;
8652;SDS011;4364;52.426;9.424;2022-08-03T10:20:45;4.55;;;2.40;;
8652;SDS011;4364;52.426;9.424;2022-08-03T10:23:15;4.78;;;2.20;;
8652;SDS011;4364;52.426;9.424;2022-08-03T10:25:45;4.30;;;2.47;;
8652;SDS011;4364;52.426;9.424;2022-08-03T10:28:15;4.70;;;2.28;;
8652;SDS011;4364;52.426;9.424;2022-08-03T10:30:46;3.95;;;2.20;;
8652;SDS011;4364;52.426;9.424;2022-08-03T10:33:19;5.30;;;2.78;;
8652;SDS011;4364;52.426;9.424;2022-08-03T10:36:07;7.18;;;2.40;;
8652;SDS011;4364;52.426;9.424;2022-08-03T10:38:46;5.57;;;2.28;;
8652;SDS011;4364;52.426;9.424;2022-08-03T10:41:19;3.85;;;2.30;;
8652;SDS011;4364;52.426;9.424;2022-08-03T10:43:49;3.60;;;2.10;;
8652;SDS011;4364;52.426;9.424;2022-08-03T10:46:20;3.72;;;2.20;;
8652;SDS011;4364;52.426;9.424;2022-08-03T10:48:47;3.67;;;2.35;;
8652;SDS011;4364;52.426;9.424;2022-08-03T10:51:16;5.00;;;2.13;;
8652;SDS011;4364;52.426;9.424;2022-08-03T10:53:45;4.65;;;2.35;;
8652;SDS011;4364;52.426;9.424;2022-08-03T11:02:11;4.43;;;2.15;;
8652;SDS011;4364;52.426;9.424;2022-08-03T11:04:39;15.30;;;2.40;;
8652;SDS011;4364;52.426;9.424;2022-08-03T11:07:20;3.30;;;2.17;;
8652;SDS011;4364;52.426;9.424;2022-08-03T11:09:53;3.75;;;2.17;;
8652;SDS011;4364;52.426;9.424;2022-08-03T11:14:58;6.30;;;2.33;;
8652;SDS011;4364;52.426;9.424;2022-08-03T11:17:26;3.13;;;2.08;;
8652;SDS011;4364;52.426;9.424;2022-08-03T11:19:53;3.63;;;2.47;;
8652;SDS011;4364;52.426;9.424;2022-08-03T11:22:23;5.22;;;2.40;;
8652;SDS011;4364;52.426;9.424;2022-08-03T11:27:23;5.18;;;2.20;;
8652;SDS011;4364;52.426;9.424;2022-08-03T11:30:16;3.90;;;2.42;;
8652;SDS011;4364;52.426;9.424;2022-08-03T11:32:53;5.60;;;2.40;;
8652;SDS011;4364;52.426;9.424;2022-08-03T11:38:02;5.15;;;2.40;;
8652;SDS011;4364;52.426;9.424;2022-08-03T11:40:47;4.53;;;2.40;;
8652;SDS011;4364;52.426;9.424;2022-08-03T11:45:55;3.03;;;2.05;;
8652;SDS011;4364;52.426;9.424;2022-08-03T11:48:24;3.15;;;2.25;;
8652;SDS011;4364;52.426;9.424;2022-08-03T11:50:53;5.40;;;2.35;;
8652;SDS011;4364;52.426;9.424;2022-08-03T11:53:20;5.90;;;2.30;;
8652;SDS011;4364;52.426;9.424;2022-08-03T11:55:46;4.35;;;2.15;;
8652;SDS011;4364;52.426;9.424;2022-08-03T11:58:18;3.25;;;2.38;;
8652;SDS011;4364;52.426;9.424;2022-08-03T12:01:06;4.78;;;2.50;;
8652;SDS011;4364;52.426;9.424;2022-08-03T12:03:34;3.25;;;2.30;;
8652;SDS011;4364;52.426;9.424;2022-08-03T12:06:01;4.30;;;2.30;;
8652;SDS011;4364;52.426;9.424;2022-08-03T12:08:31;4.63;;;2.38;;
8652;SDS011;4364;52.426;9.424;2022-08-03T12:10:59;3.55;;;2.20;;
8652;SDS011;4364;52.426;9.424;2022-08-03T12:13:34;3.03;;;2.17;;
8652;SDS011;4364;52.426;9.424;2022-08-03T12:16:23;6.35;;;2.30;;
8652;SDS011;4364;52.426;9.424;2022-08-03T12:18:58;4.20;;;2.33;;
8652;SDS011;4364;52.426;9.424;2022-08-03T12:21:26;3.33;;;2.38;;
8652;SDS011;4364;52.426;9.424;2022-08-03T12:23:56;3.83;;;2.35;;
8652;SDS011;4364;52.426;9.424;2022-08-03T12:26:41;5.13;;;2.80;;
8652;SDS011;4364;52.426;9.424;2022-08-03T12:29:24;3.38;;;2.30;;
8652;SDS011;4364;52.426;9.424;2022-08-03T12:31:51;2.72;;;1.88;;
8652;SDS011;4364;52.426;9.424;2022-08-03T12:34:17;5.38;;;2.25;;
8652;SDS011;4364;52.426;9.424;2022-08-03T12:36:51;6.55;;;2.17;;
8652;SDS011;4364;52.426;9.424;2022-08-03T12:39:22;6.05;;;2.20;;
8652;SDS011;4364;52.426;9.424;2022-08-03T12:41:53;6.68;;;2.47;;
8652;SDS011;4364;52.426;9.424;2022-08-03T12:44:31;5.25;;;2.20;;
8652;SDS011;4364;52.426;9.424;2022-08-03T12:46:59;3.90;;;2.22;;
8652;SDS011;4364;52.426;9.424;2022-08-03T12:49:27;2.60;;;2.40;;
8652;SDS011;4364;52.426;9.424;2022-08-03T12:51:57;6.50;;;2.35;;
8652;SDS011;4364;52.426;9.424;2022-08-03T12:54:32;5.47;;;2.50;;
8652;SDS011;4364;52.426;9.424;2022-08-03T12:57:08;3.78;;;2.13;;
8652;SDS011;4364;52.426;9.424;2022-08-03T12:59:42;4.60;;;2.22;;
8652;SDS011;4364;52.426;9.424;2022-08-03T13:02:19;3.88;;;2.08;;
8652;SDS011;4364;52.426;9.424;2022-08-03T13:04:49;5.03;;;2.00;;
8652;SDS011;4364;52.426;9.424;2022-08-03T13:07:18;2.83;;;2.08;;
8652;SDS011;4364;52.426;9.424;2022-08-03T13:09:47;2.70;;;2.05;;
8652;SDS011;4364;52.426;9.424;2022-08-03T13:12:16;4.82;;;2.42;;
8652;SDS011;4364;52.426;9.424;2022-08-03T13:14:46;5.65;;;2.40;;
8652;SDS011;4364;52.426;9.424;2022-08-03T13:17:13;4.20;;;2.15;;
8652;SDS011;4364;52.426;9.424;2022-08-03T13:19:44;3.65;;;2.35;;
8652;SDS011;4364;52.426;9.424;2022-08-03T13:22:21;4.32;;;2.42;;
8652;SDS011;4364;52.426;9.424;2022-08-03T13:24:51;5.68;;;2.10;;
8652;SDS011;4364;52.426;9.424;2022-08-03T13:27:20;8.00;;;2.33;;
8652;SDS011;4364;52.426;9.424;2022-08-03T13:30:07;4.53;;;2.05;;
8652;SDS011;4364;52.426;9.424;2022-08-03T13:32:35;3.88;;;2.17;;
8652;SDS011;4364;52.426;9.424;2022-08-03T13:35:02;3.92;;;1.95;;
8652;SDS011;4364;52.426;9.424;2022-08-03T13:37:30;4.70;;;2.40;;
8652;SDS011;4364;52.426;9.424;2022-08-03T13:39:58;3.53;;;2.25;;
8652;SDS011;4364;52.426;9.424;2022-08-03T13:42:31;4.03;;;2.00;;
8652;SDS011;4364;52.426;9.424;2022-08-03T13:44:58;4.20;;;2.45;;
8652;SDS011;4364;52.426;9.424;2022-08-03T13:47:26;2.58;;;2.30;;
8652;SDS011;4364;52.426;9.424;2022-08-03T13:49:53;6.20;;;2.30;;
8652;SDS011;4364;52.426;9.424;2022-08-03T13:52:31;3.08;;;2.20;;
8652;SDS011;4364;52.426;9.424;2022-08-03T13:55:00;3.13;;;2.30;;
8652;SDS011;4364;52.426;9.424;2022-08-03T13:57:28;3.88;;;2.15;;
8652;SDS011;4364;52.426;9.424;2022-08-03T14:00:15;4.25;;;2.40;;
8652;SDS011;4364;52.426;9.424;2022-08-03T14:02:54;4.60;;;2.50;;
8652;SDS011;4364;52.426;9.424;2022-08-03T14:05:29;3.75;;;2.25;;
8652;SDS011;4364;52.426;9.424;2022-08-03T14:07:57;4.05;;;2.25;;
8652;SDS011;4364;52.426;9.424;2022-08-03T14:10:30;5.60;;;2.10;;
8652;SDS011;4364;52.426;9.424;2022-08-03T14:13:02;2.63;;;1.98;;
8652;SDS011;4364;52.426;9.424;2022-08-03T14:15:30;5.82;;;2.60;;
8652;SDS011;4364;52.426;9.424;2022-08-03T14:17:56;4.38;;;2.40;;
8652;SDS011;4364;52.426;9.424;2022-08-03T14:20:24;3.53;;;2.50;;
8652;SDS011;4364;52.426;9.424;2022-08-03T14:23:04;3.88;;;2.38;;
8652;SDS011;4364;52.426;9.424;2022-08-03T14:25:32;4.53;;;2.65;;
8652;SDS011;4364;52.426;9.424;2022-08-03T14:28:21;5.13;;;2.40;;
8652;SDS011;4364;52.426;9.424;2022-08-03T14:30:49;5.80;;;2.45;;
8652;SDS011;4364;52.426;9.424;2022-08-03T14:33:19;8.30;;;2.70;;
8652;SDS011;4364;52.426;9.424;2022-08-03T14:35:46;5.10;;;2.80;;
8652;SDS011;4364;52.426;9.424;2022-08-03T14:38:13;3.25;;;2.40;;
8652;SDS011;4364;52.426;9.424;2022-08-03T14:40:40;5.20;;;2.80;;
8652;SDS011;4364;52.426;9.424;2022-08-03T14:43:07;5.95;;;2.50;;
8652;SDS011;4364;52.426;9.424;2022-08-03T14:45:34;3.35;;;2.30;;
8652;SDS011;4364;52.426;9.424;2022-08-03T14:48:01;7.68;;;2.85;;
8652;SDS011;4364;52.426;9.424;2022-08-03T14:50:49;4.22;;;2.42;;
8652;SDS011;4364;52.426;9.424;2022-08-03T14:53:18;4.40;;;2.67;;
8652;SDS011;4364;52.426;9.424;2022-08-03T14:55:45;6.20;;;2.30;;
8652;SDS011;4364;52.426;9.424;2022-08-03T14:58:19;3.22;;;2.35;;
8652;SDS011;4364;52.426;9.424;2022-08-03T15:00:53;3.22;;;2.38;;
8652;SDS011;4364;52.426;9.424;2022-08-03T15:03:21;3.80;;;2.30;;
8652;SDS011;4364;52.426;9.424;2022-08-03T15:05:54;5.60;;;2.30;;
8652;SDS011;4364;52.426;9.424;2022-08-03T15:08:22;4.78;;;2.30;;
8652;SDS011;4364;52.426;9.424;2022-08-03T15:10:50;5.28;;;2.40;;
8652;SDS011;4364;52.426;9.424;2022-08-03T15:13:17;3.80;;;2.20;;
8652;SDS011;4364;52.426;9.424;2022-08-03T15:15:45;3.72;;;2.30;;
8652;SDS011;4364;52.426;9.424;2022-08-03T15:18:12;4.00;;;2.35;;
8652;SDS011;4364;52.426;9.424;2022-08-03T15:20:39;3.17;;;2.35;;
8652;SDS011;4364;52.426;9.424;2022-08-03T15:23:12;4.82;;;2.30;;
8652;SDS011;4364;52.426;9.424;2022-08-03T15:25:40;4.60;;;2.30;;
8652;SDS011;4364;52.426;9.424;2022-08-03T15:28:27;3.88;;;2.50;;
8652;SDS011;4364;52.426;9.424;2022-08-03T15:30:54;4.10;;;2.63;;
8652;SDS011;4364;52.426;9.424;2022-08-03T15:33:20;6.30;;;2.63;;
8652;SDS011;4364;52.426;9.424;2022-08-03T15:35:47;4.97;;;2.40;;
8652;SDS011;4364;52.426;9.424;2022-08-03T15:38:14;5.70;;;2.95;;
8652;SDS011;4364;52.426;9.424;2022-08-03T15:40:41;4.18;;;2.42;;
8652;SDS011;4364;52.426;9.424;2022-08-03T15:43:09;6.07;;;2.75;;
8652;SDS011;4364;52.426;9.424;2022-08-03T15:45:36;5.32;;;2.40;;
8652;SDS011;4364;52.426;9.424;2022-08-03T15:48:04;4.68;;;2.42;;
8652;SDS011;4364;52.426;9.424;2022-08-03T15:50:31;4.68;;;2.50;;
8652;SDS011;4364;52.426;9.424;2022-08-03T15:52:58;5.57;;;2.85;;
8652;SDS011;4364;52.426;9.424;2022-08-03T15:55:26;4.07;;;2.30;;
8652;SDS011;4364;52.426;9.424;2022-08-03T15:57:52;5.85;;;2.47;;
8652;SDS011;4364;52.426;9.424;2022-08-03T16:00:39;5.03;;;2.42;;
8652;SDS011;4364;52.426;9.424;2022-08-03T16:03:08;4.95;;;2.67;;
8652;SDS011;4364;52.426;9.424;2022-08-03T16:05:35;4.97;;;2.50;;